sensor_id;sensor_type;location;lat;lon;timestamp;P1;durP1;ratioP1;P2;durP2;ratioP2
6348;SDS011;3207;42.648;23.406;2022-10-04T00:00:57;3.95;;;2.80;;
6348;SDS011;3207;42.648;23.406;2022-10-04T00:03:29;6.45;;;2.53;;
6348;SDS011;3207;42.648;23.406;2022-10-04T00:06:00;4.72;;;2.47;;
6348;SDS011;3207;42.648;23.406;2022-10-04T00:08:30;3.15;;;2.05;;
6348;SDS011;3207;42.648;23.406;2022-10-04T00:11:05;5.82;;;2.55;;
6348;SDS011;3207;42.648;23.406;2022-10-04T00:13:38;5.30;;;2.15;;
6348;SDS011;3207;42.648;23.406;2022-10-04T00:16:11;3.38;;;2.17;;
6348;SDS011;3207;42.648;23.406;2022-10-04T00:18:46;2.67;;;2.25;;
6348;SDS011;3207;42.648;23.406;2022-10-04T00:21:13;3.08;;;1.98;;
6348;SDS011;3207;42.648;23.406;2022-10-04T00:23:43;2.72;;;1.83;;
6348;SDS011;3207;42.648;23.406;2022-10-04T00:26:58;5.15;;;1.65;;
6348;SDS011;3207;42.648;23.406;2022-10-04T00:29:37;4.47;;;2.35;;
6348;SDS011;3207;42.648;23.406;2022-10-04T00:32:28;2.70;;;2.00;;
6348;SDS011;3207;42.648;23.406;2022-10-04T00:34:56;6.07;;;1.90;;
6348;SDS011;3207;42.648;23.406;2022-10-04T00:37:24;3.25;;;2.10;;
6348;SDS011;3207;42.648;23.406;2022-10-04T00:39:56;2.90;;;2.33;;
6348;SDS011;3207;42.648;23.406;2022-10-04T00:42:38;2.00;;;1.63;;
6348;SDS011;3207;42.648;23.406;2022-10-04T00:48:04;7.32;;;2.15;;
6348;SDS011;3207;42.648;23.406;2022-10-04T00:50:41;3.85;;;1.77;;
6348;SDS011;3207;42.648;23.406;2022-10-04T00:53:13;3.10;;;2.22;;
6348;SDS011;3207;42.648;23.406;2022-10-04T00:55:47;3.58;;;1.80;;
6348;SDS011;3207;42.648;23.406;2022-10-04T00:58:21;2.30;;;1.88;;
6348;SDS011;3207;42.648;23.406;2022-10-04T01:00:52;5.78;;;2.33;;
6348;SDS011;3207;42.648;23.406;2022-10-04T01:03:22;3.70;;;1.83;;
6348;SDS011;3207;42.648;23.406;2022-10-04T01:05:56;6.07;;;1.85;;
6348;SDS011;3207;42.648;23.406;2022-10-04T01:08:27;3.42;;;2.08;;
6348;SDS011;3207;42.648;23.406;2022-10-04T01:10:57;2.95;;;2.28;;
6348;SDS011;3207;42.648;23.406;2022-10-04T01:13:29;2.63;;;1.90;;
6348;SDS011;3207;42.648;23.406;2022-10-04T01:16:02;2.70;;;2.25;;
6348;SDS011;3207;42.648;23.406;2022-10-04T01:18:35;2.45;;;1.75;;
6348;SDS011;3207;42.648;23.406;2022-10-04T01:21:03;3.33;;;2.08;;
6348;SDS011;3207;42.648;23.406;2022-10-04T01:23:39;1.90;;;1.50;;
6348;SDS011;3207;42.648;23.406;2022-10-04T01:29:11;2.15;;;1.90;;
6348;SDS011;3207;42.648;23.406;2022-10-04T01:31:41;1.60;;;1.30;;
6348;SDS011;3207;42.648;23.406;2022-10-04T01:34:11;2.88;;;1.70;;
6348;SDS011;3207;42.648;23.406;2022-10-04T01:36:39;3.72;;;2.13;;
6348;SDS011;3207;42.648;23.406;2022-10-04T01:39:08;2.78;;;1.80;;
6348;SDS011;3207;42.648;23.406;2022-10-04T01:41:38;4.72;;;1.95;;
6348;SDS011;3207;42.648;23.406;2022-10-04T01:44:11;3.50;;;1.52;;
6348;SDS011;3207;42.648;23.406;2022-10-04T01:46:44;3.08;;;1.70;;
6348;SDS011;3207;42.648;23.406;2022-10-04T01:49:12;2.17;;;1.73;;
6348;SDS011;3207;42.648;23.406;2022-10-04T01:51:46;2.28;;;1.40;;
6348;SDS011;3207;42.648;23.406;2022-10-04T01:54:20;2.88;;;1.50;;
6348;SDS011;3207;42.648;23.406;2022-10-04T01:56:51;1.80;;;1.67;;
6348;SDS011;3207;42.648;23.406;2022-10-04T01:59:25;2.70;;;1.50;;
6348;SDS011;3207;42.648;23.406;2022-10-04T02:01:58;2.50;;;1.50;;
6348;SDS011;3207;42.648;23.406;2022-10-04T02:04:31;1.20;;;1.10;;
6348;SDS011;3207;42.648;23.406;2022-10-04T02:07:01;3.90;;;1.70;;
6348;SDS011;3207;42.648;23.406;2022-10-04T02:09:37;4.05;;;1.90;;
6348;SDS011;3207;42.648;23.406;2022-10-04T02:12:07;1.65;;;1.35;;
6348;SDS011;3207;42.648;23.406;2022-10-04T02:14:35;1.77;;;1.30;;
6348;SDS011;3207;42.648;23.406;2022-10-04T02:17:08;4.40;;;2.47;;
6348;SDS011;3207;42.648;23.406;2022-10-04T02:19:38;6.00;;;1.40;;
6348;SDS011;3207;42.648;23.406;2022-10-04T02:22:07;3.38;;;1.60;;
6348;SDS011;3207;42.648;23.406;2022-10-04T02:24:38;6.38;;;1.70;;
6348;SDS011;3207;42.648;23.406;2022-10-04T02:27:08;2.83;;;1.98;;
6348;SDS011;3207;42.648;23.406;2022-10-04T02:29:35;5.20;;;1.50;;
6348;SDS011;3207;42.648;23.406;2022-10-04T02:32:02;2.45;;;1.98;;
6348;SDS011;3207;42.648;23.406;2022-10-04T02:34:47;3.67;;;1.40;;
6348;SDS011;3207;42.648;23.406;2022-10-04T02:37:14;3.63;;;2.42;;
6348;SDS011;3207;42.648;23.406;2022-10-04T02:39:44;8.80;;;1.85;;
6348;SDS011;3207;42.648;23.406;2022-10-04T02:42:16;2.35;;;1.67;;
6348;SDS011;3207;42.648;23.406;2022-10-04T02:44:48;2.72;;;1.52;;
6348;SDS011;3207;42.648;23.406;2022-10-04T02:47:21;3.55;;;1.77;;
6348;SDS011;3207;42.648;23.406;2022-10-04T02:49:54;6.60;;;2.17;;
6348;SDS011;3207;42.648;23.406;2022-10-04T02:52:26;3.00;;;1.38;;
6348;SDS011;3207;42.648;23.406;2022-10-04T02:54:59;2.63;;;1.48;;
6348;SDS011;3207;42.648;23.406;2022-10-04T02:57:30;2.72;;;1.50;;
6348;SDS011;3207;42.648;23.406;2022-10-04T03:00:08;2.63;;;1.85;;
6348;SDS011;3207;42.648;23.406;2022-10-04T03:02:42;1.83;;;1.38;;
6348;SDS011;3207;42.648;23.406;2022-10-04T03:05:41;2.35;;;1.52;;
6348;SDS011;3207;42.648;23.406;2022-10-04T03:08:11;1.80;;;1.27;;
6348;SDS011;3207;42.648;23.406;2022-10-04T03:10:41;4.90;;;1.60;;
6348;SDS011;3207;42.648;23.406;2022-10-04T03:13:08;3.03;;;1.30;;
6348;SDS011;3207;42.648;23.406;2022-10-04T03:15:37;2.55;;;2.03;;
6348;SDS011;3207;42.648;23.406;2022-10-04T03:18:05;4.32;;;2.00;;
6348;SDS011;3207;42.648;23.406;2022-10-04T03:20:34;4.00;;;1.40;;
6348;SDS011;3207;42.648;23.406;2022-10-04T03:23:02;2.58;;;1.50;;
6348;SDS011;3207;42.648;23.406;2022-10-04T03:25:34;6.20;;;1.98;;
6348;SDS011;3207;42.648;23.406;2022-10-04T03:28:09;2.85;;;1.20;;
6348;SDS011;3207;42.648;23.406;2022-10-04T03:30:36;2.15;;;1.63;;
6348;SDS011;3207;42.648;23.406;2022-10-04T03:33:10;5.82;;;1.70;;
6348;SDS011;3207;42.648;23.406;2022-10-04T03:35:42;8.15;;;2.03;;
6348;SDS011;3207;42.648;23.406;2022-10-04T03:38:12;3.22;;;1.63;;
6348;SDS011;3207;42.648;23.406;2022-10-04T03:40:41;4.40;;;2.13;;
6348;SDS011;3207;42.648;23.406;2022-10-04T03:43:18;3.25;;;1.40;;
6348;SDS011;3207;42.648;23.406;2022-10-04T03:45:50;2.80;;;1.80;;
6348;SDS011;3207;42.648;23.406;2022-10-04T03:48:21;7.75;;;2.10;;
6348;SDS011;3207;42.648;23.406;2022-10-04T03:50:54;3.17;;;1.65;;
6348;SDS011;3207;42.648;23.406;2022-10-04T03:53:27;1.95;;;1.75;;
6348;SDS011;3207;42.648;23.406;2022-10-04T03:55:56;4.28;;;2.20;;
6348;SDS011;3207;42.648;23.406;2022-10-04T03:58:26;2.17;;;1.30;;
6348;SDS011;3207;42.648;23.406;2022-10-04T04:01:02;2.28;;;1.75;;
6348;SDS011;3207;42.648;23.406;2022-10-04T04:03:41;5.25;;;2.38;;
6348;SDS011;3207;42.648;23.406;2022-10-04T04:06:17;2.28;;;1.77;;
6348;SDS011;3207;42.648;23.406;2022-10-04T04:08:46;4.22;;;2.05;;
6348;SDS011;3207;42.648;23.406;2022-10-04T04:11:17;4.28;;;2.13;;
6348;SDS011;3207;42.648;23.406;2022-10-04T04:13:50;6.05;;;1.80;;
6348;SDS011;3207;42.648;23.406;2022-10-04T04:16:22;4.40;;;1.95;;
6348;SDS011;3207;42.648;23.406;2022-10-04T04:18:51;3.75;;;2.10;;
6348;SDS011;3207;42.648;23.406;2022-10-04T04:21:19;4.38;;;2.47;;
6348;SDS011;3207;42.648;23.406;2022-10-04T04:23:50;4.45;;;2.08;;
6348;SDS011;3207;42.648;23.406;2022-10-04T04:26:23;2.85;;;2.28;;
6348;SDS011;3207;42.648;23.406;2022-10-04T04:28:55;2.80;;;2.25;;
6348;SDS011;3207;42.648;23.406;2022-10-04T04:31:30;7.15;;;2.40;;
6348;SDS011;3207;42.648;23.406;2022-10-04T04:33:59;2.50;;;2.30;;
6348;SDS011;3207;42.648;23.406;2022-10-04T04:36:27;1.73;;;1.55;;
6348;SDS011;3207;42.648;23.406;2022-10-04T04:39:05;2.63;;;2.10;;
6348;SDS011;3207;42.648;23.406;2022-10-04T04:41:50;3.88;;;2.85;;
6348;SDS011;3207;42.648;23.406;2022-10-04T04:44:19;2.90;;;1.70;;
6348;SDS011;3207;42.648;23.406;2022-10-04T04:46:46;5.53;;;2.50;;
6348;SDS011;3207;42.648;23.406;2022-10-04T04:49:14;5.45;;;3.75;;
6348;SDS011;3207;42.648;23.406;2022-10-04T04:51:51;5.45;;;3.38;;
6348;SDS011;3207;42.648;23.406;2022-10-04T04:54:19;5.43;;;2.83;;
6348;SDS011;3207;42.648;23.406;2022-10-04T04:56:49;4.07;;;3.47;;
6348;SDS011;3207;42.648;23.406;2022-10-04T04:59:19;12.32;;;3.13;;
6348;SDS011;3207;42.648;23.406;2022-10-04T05:01:48;5.68;;;2.80;;
6348;SDS011;3207;42.648;23.406;2022-10-04T05:04:17;4.68;;;3.03;;
6348;SDS011;3207;42.648;23.406;2022-10-04T05:06:46;4.75;;;3.60;;
6348;SDS011;3207;42.648;23.406;2022-10-04T05:09:24;7.43;;;3.72;;
6348;SDS011;3207;42.648;23.406;2022-10-04T05:11:55;7.90;;;4.13;;
6348;SDS011;3207;42.648;23.406;2022-10-04T05:14:29;11.65;;;3.83;;
6348;SDS011;3207;42.648;23.406;2022-10-04T05:16:56;7.60;;;4.82;;
6348;SDS011;3207;42.648;23.406;2022-10-04T05:19:23;12.25;;;4.85;;
6348;SDS011;3207;42.648;23.406;2022-10-04T05:21:55;9.05;;;5.60;;
6348;SDS011;3207;42.648;23.406;2022-10-04T05:24:25;9.23;;;5.13;;
6348;SDS011;3207;42.648;23.406;2022-10-04T05:26:55;9.75;;;5.07;;
6348;SDS011;3207;42.648;23.406;2022-10-04T05:29:25;10.73;;;5.07;;
6348;SDS011;3207;42.648;23.406;2022-10-04T05:32:01;7.93;;;4.20;;
6348;SDS011;3207;42.648;23.406;2022-10-04T05:34:37;8.48;;;4.90;;
6348;SDS011;3207;42.648;23.406;2022-10-04T05:37:20;11.57;;;5.78;;
6348;SDS011;3207;42.648;23.406;2022-10-04T05:40:02;7.85;;;4.80;;
6348;SDS011;3207;42.648;23.406;2022-10-04T05:42:41;8.23;;;5.28;;
6348;SDS011;3207;42.648;23.406;2022-10-04T05:45:11;7.30;;;4.72;;
6348;SDS011;3207;42.648;23.406;2022-10-04T05:47:44;12.48;;;5.35;;
6348;SDS011;3207;42.648;23.406;2022-10-04T05:50:14;10.20;;;5.50;;
6348;SDS011;3207;42.648;23.406;2022-10-04T05:52:45;9.05;;;5.38;;
6348;SDS011;3207;42.648;23.406;2022-10-04T05:55:16;11.57;;;5.63;;
6348;SDS011;3207;42.648;23.406;2022-10-04T05:57:50;10.25;;;5.18;;
6348;SDS011;3207;42.648;23.406;2022-10-04T06:00:44;10.43;;;4.88;;
6348;SDS011;3207;42.648;23.406;2022-10-04T06:03:30;8.23;;;4.70;;
6348;SDS011;3207;42.648;23.406;2022-10-04T06:06:11;10.90;;;5.00;;
6348;SDS011;3207;42.648;23.406;2022-10-04T06:08:46;6.60;;;4.25;;
6348;SDS011;3207;42.648;23.406;2022-10-04T06:11:24;15.55;;;4.88;;
6348;SDS011;3207;42.648;23.406;2022-10-04T06:14:03;9.40;;;4.32;;
6348;SDS011;3207;42.648;23.406;2022-10-04T06:16:53;5.70;;;4.40;;
6348;SDS011;3207;42.648;23.406;2022-10-04T06:19:46;9.20;;;4.55;;
6348;SDS011;3207;42.648;23.406;2022-10-04T06:22:26;7.15;;;4.75;;
6348;SDS011;3207;42.648;23.406;2022-10-04T06:24:54;7.40;;;4.43;;
6348;SDS011;3207;42.648;23.406;2022-10-04T06:27:26;9.98;;;4.15;;
6348;SDS011;3207;42.648;23.406;2022-10-04T06:30:00;9.20;;;4.97;;
6348;SDS011;3207;42.648;23.406;2022-10-04T06:32:43;7.43;;;5.13;;
6348;SDS011;3207;42.648;23.406;2022-10-04T06:35:34;15.85;;;5.22;;
6348;SDS011;3207;42.648;23.406;2022-10-04T06:41:30;10.00;;;5.75;;
6348;SDS011;3207;42.648;23.406;2022-10-04T06:44:11;9.02;;;6.45;;
6348;SDS011;3207;42.648;23.406;2022-10-04T06:46:55;10.00;;;6.65;;
6348;SDS011;3207;42.648;23.406;2022-10-04T06:49:35;13.23;;;6.68;;
6348;SDS011;3207;42.648;23.406;2022-10-04T06:55:20;13.73;;;6.35;;
6348;SDS011;3207;42.648;23.406;2022-10-04T06:58:04;10.32;;;5.88;;
6348;SDS011;3207;42.648;23.406;2022-10-04T07:00:44;9.00;;;6.13;;
6348;SDS011;3207;42.648;23.406;2022-10-04T07:03:20;10.98;;;6.05;;
6348;SDS011;3207;42.648;23.406;2022-10-04T07:05:53;13.82;;;7.40;;
6348;SDS011;3207;42.648;23.406;2022-10-04T07:08:29;13.43;;;6.60;;
6348;SDS011;3207;42.648;23.406;2022-10-04T07:11:04;14.50;;;7.03;;
6348;SDS011;3207;42.648;23.406;2022-10-04T07:13:40;10.55;;;6.68;;
6348;SDS011;3207;42.648;23.406;2022-10-04T07:19:14;8.38;;;5.97;;
6348;SDS011;3207;42.648;23.406;2022-10-04T07:21:53;10.88;;;6.68;;
6348;SDS011;3207;42.648;23.406;2022-10-04T07:24:29;8.75;;;6.47;;
6348;SDS011;3207;42.648;23.406;2022-10-04T07:27:12;7.30;;;5.85;;
6348;SDS011;3207;42.648;23.406;2022-10-04T07:29:42;11.05;;;6.75;;
6348;SDS011;3207;42.648;23.406;2022-10-04T07:32:11;15.30;;;7.53;;
6348;SDS011;3207;42.648;23.406;2022-10-04T07:34:45;9.85;;;7.00;;
6348;SDS011;3207;42.648;23.406;2022-10-04T07:37:18;9.23;;;6.68;;
6348;SDS011;3207;42.648;23.406;2022-10-04T07:39:49;10.73;;;7.38;;
6348;SDS011;3207;42.648;23.406;2022-10-04T07:42:25;8.63;;;7.40;;
6348;SDS011;3207;42.648;23.406;2022-10-04T07:45:00;7.68;;;6.57;;
6348;SDS011;3207;42.648;23.406;2022-10-04T07:47:33;9.05;;;6.47;;
6348;SDS011;3207;42.648;23.406;2022-10-04T07:50:12;9.57;;;6.43;;
6348;SDS011;3207;42.648;23.406;2022-10-04T07:52:47;13.18;;;6.40;;
6348;SDS011;3207;42.648;23.406;2022-10-04T07:55:22;9.23;;;5.53;;
6348;SDS011;3207;42.648;23.406;2022-10-04T07:57:56;6.18;;;4.80;;
6348;SDS011;3207;42.648;23.406;2022-10-04T08:00:39;6.32;;;5.00;;
6348;SDS011;3207;42.648;23.406;2022-10-04T08:03:19;7.70;;;5.45;;
6348;SDS011;3207;42.648;23.406;2022-10-04T08:05:57;7.00;;;4.93;;
6348;SDS011;3207;42.648;23.406;2022-10-04T08:08:53;10.57;;;4.95;;
6348;SDS011;3207;42.648;23.406;2022-10-04T08:11:38;5.97;;;5.38;;
6348;SDS011;3207;42.648;23.406;2022-10-04T08:14:18;6.10;;;4.57;;
6348;SDS011;3207;42.648;23.406;2022-10-04T08:20:31;4.88;;;4.13;;
6348;SDS011;3207;42.648;23.406;2022-10-04T08:23:06;6.38;;;3.83;;
6348;SDS011;3207;42.648;23.406;2022-10-04T08:25:48;5.53;;;3.50;;
6348;SDS011;3207;42.648;23.406;2022-10-04T08:28:25;4.05;;;3.25;;
6348;SDS011;3207;42.648;23.406;2022-10-04T08:31:21;4.63;;;3.20;;
6348;SDS011;3207;42.648;23.406;2022-10-04T08:34:02;4.65;;;2.88;;
6348;SDS011;3207;42.648;23.406;2022-10-04T08:36:49;5.72;;;2.95;;
6348;SDS011;3207;42.648;23.406;2022-10-04T08:39:31;3.33;;;2.67;;
6348;SDS011;3207;42.648;23.406;2022-10-04T08:42:17;5.28;;;2.40;;
6348;SDS011;3207;42.648;23.406;2022-10-04T08:51:24;2.53;;;2.33;;
6348;SDS011;3207;42.648;23.406;2022-10-04T08:54:26;3.33;;;1.90;;
6348;SDS011;3207;42.648;23.406;2022-10-04T08:57:20;3.30;;;2.17;;
6348;SDS011;3207;42.648;23.406;2022-10-04T09:00:11;2.33;;;2.13;;
6348;SDS011;3207;42.648;23.406;2022-10-04T09:03:01;3.60;;;2.00;;
6348;SDS011;3207;42.648;23.406;2022-10-04T09:05:56;2.88;;;1.92;;
6348;SDS011;3207;42.648;23.406;2022-10-04T09:08:53;3.05;;;2.85;;
6348;SDS011;3207;42.648;23.406;2022-10-04T09:11:48;4.65;;;3.28;;
6348;SDS011;3207;42.648;23.406;2022-10-04T09:14:49;3.33;;;2.95;;
6348;SDS011;3207;42.648;23.406;2022-10-04T09:17:46;7.95;;;2.63;;
6348;SDS011;3207;42.648;23.406;2022-10-04T09:20:30;3.78;;;2.45;;
6348;SDS011;3207;42.648;23.406;2022-10-04T09:23:17;3.50;;;2.40;;
6348;SDS011;3207;42.648;23.406;2022-10-04T09:26:08;2.97;;;2.78;;
6348;SDS011;3207;42.648;23.406;2022-10-04T09:32:05;2.83;;;2.45;;
6348;SDS011;3207;42.648;23.406;2022-10-04T09:34:50;2.42;;;1.80;;
6348;SDS011;3207;42.648;23.406;2022-10-04T09:37:40;3.30;;;2.72;;
6348;SDS011;3207;42.648;23.406;2022-10-04T09:40:29;3.65;;;2.33;;
6348;SDS011;3207;42.648;23.406;2022-10-04T09:43:27;2.17;;;1.98;;
6348;SDS011;3207;42.648;23.406;2022-10-04T09:46:15;4.53;;;2.38;;
6348;SDS011;3207;42.648;23.406;2022-10-04T09:48:56;2.95;;;2.63;;
6348;SDS011;3207;42.648;23.406;2022-10-04T09:51:41;2.47;;;2.13;;
6348;SDS011;3207;42.648;23.406;2022-10-04T09:54:40;3.00;;;2.40;;
6348;SDS011;3207;42.648;23.406;2022-10-04T09:57:26;2.33;;;2.13;;
6348;SDS011;3207;42.648;23.406;2022-10-04T10:00:07;2.85;;;2.63;;
6348;SDS011;3207;42.648;23.406;2022-10-04T10:05:47;3.63;;;2.42;;
6348;SDS011;3207;42.648;23.406;2022-10-04T10:08:23;2.80;;;2.50;;
6348;SDS011;3207;42.648;23.406;2022-10-04T10:11:00;7.05;;;2.17;;
6348;SDS011;3207;42.648;23.406;2022-10-04T10:14:02;2.97;;;2.67;;
6348;SDS011;3207;42.648;23.406;2022-10-04T10:16:52;2.60;;;2.30;;
6348;SDS011;3207;42.648;23.406;2022-10-04T10:19:41;4.28;;;3.00;;
6348;SDS011;3207;42.648;23.406;2022-10-04T10:25:30;5.20;;;2.47;;
6348;SDS011;3207;42.648;23.406;2022-10-04T10:28:17;2.35;;;1.92;;
6348;SDS011;3207;42.648;23.406;2022-10-04T10:33:59;2.60;;;2.40;;
6348;SDS011;3207;42.648;23.406;2022-10-04T10:36:51;2.45;;;2.22;;
6348;SDS011;3207;42.648;23.406;2022-10-04T10:42:27;3.97;;;2.10;;
6348;SDS011;3207;42.648;23.406;2022-10-04T10:45:16;1.95;;;1.67;;
6348;SDS011;3207;42.648;23.406;2022-10-04T10:47:52;1.92;;;1.80;;
6348;SDS011;3207;42.648;23.406;2022-10-04T10:50:31;1.88;;;1.77;;
6348;SDS011;3207;42.648;23.406;2022-10-04T10:56:42;4.90;;;2.05;;
6348;SDS011;3207;42.648;23.406;2022-10-04T10:59:41;2.35;;;2.05;;
6348;SDS011;3207;42.648;23.406;2022-10-04T11:05:55;3.58;;;2.40;;
6348;SDS011;3207;42.648;23.406;2022-10-04T11:11:53;2.50;;;2.22;;
6348;SDS011;3207;42.648;23.406;2022-10-04T11:18:10;2.38;;;2.17;;
6348;SDS011;3207;42.648;23.406;2022-10-04T11:21:06;2.08;;;1.98;;
6348;SDS011;3207;42.648;23.406;2022-10-04T11:24:17;3.53;;;2.45;;
6348;SDS011;3207;42.648;23.406;2022-10-04T11:27:10;3.13;;;2.50;;
6348;SDS011;3207;42.648;23.406;2022-10-04T11:29:53;5.38;;;2.13;;
6348;SDS011;3207;42.648;23.406;2022-10-04T11:39:00;2.65;;;2.28;;
6348;SDS011;3207;42.648;23.406;2022-10-04T11:41:40;2.20;;;1.77;;
6348;SDS011;3207;42.648;23.406;2022-10-04T11:44:21;2.03;;;1.60;;
6348;SDS011;3207;42.648;23.406;2022-10-04T11:47:06;3.42;;;1.80;;
6348;SDS011;3207;42.648;23.406;2022-10-04T11:49:51;1.92;;;1.80;;
6348;SDS011;3207;42.648;23.406;2022-10-04T11:55:57;5.88;;;2.20;;
6348;SDS011;3207;42.648;23.406;2022-10-04T11:59:02;3.28;;;1.70;;
6348;SDS011;3207;42.648;23.406;2022-10-04T12:07:45;1.77;;;1.65;;
6348;SDS011;3207;42.648;23.406;2022-10-04T12:10:21;1.73;;;1.45;;
6348;SDS011;3207;42.648;23.406;2022-10-04T12:15:58;2.53;;;1.63;;
6348;SDS011;3207;42.648;23.406;2022-10-04T12:21:46;2.92;;;1.88;;
6348;SDS011;3207;42.648;23.406;2022-10-04T12:24:28;2.45;;;2.03;;
6348;SDS011;3207;42.648;23.406;2022-10-04T12:33:33;1.95;;;1.42;;
6348;SDS011;3207;42.648;23.406;2022-10-04T12:36:11;1.67;;;1.55;;
6348;SDS011;3207;42.648;23.406;2022-10-04T12:38:54;2.13;;;1.63;;
6348;SDS011;3207;42.648;23.406;2022-10-04T12:41:35;3.90;;;1.95;;
6348;SDS011;3207;42.648;23.406;2022-10-04T12:44:26;3.28;;;1.60;;
6348;SDS011;3207;42.648;23.406;2022-10-04T12:50:07;2.83;;;1.70;;
6348;SDS011;3207;42.648;23.406;2022-10-04T12:52:43;2.50;;;1.70;;
6348;SDS011;3207;42.648;23.406;2022-10-04T12:55:19;3.33;;;2.00;;
6348;SDS011;3207;42.648;23.406;2022-10-04T12:58:06;1.50;;;1.40;;
6348;SDS011;3207;42.648;23.406;2022-10-04T13:00:42;7.57;;;1.90;;
6348;SDS011;3207;42.648;23.406;2022-10-04T13:03:18;1.98;;;1.35;;
6348;SDS011;3207;42.648;23.406;2022-10-04T13:06:06;1.70;;;1.60;;
6348;SDS011;3207;42.648;23.406;2022-10-04T13:08:46;3.50;;;2.08;;
6348;SDS011;3207;42.648;23.406;2022-10-04T13:11:26;2.70;;;2.22;;
6348;SDS011;3207;42.648;23.406;2022-10-04T13:14:14;3.05;;;1.80;;
6348;SDS011;3207;42.648;23.406;2022-10-04T13:17:13;6.88;;;2.17;;
6348;SDS011;3207;42.648;23.406;2022-10-04T13:19:54;3.72;;;1.77;;
6348;SDS011;3207;42.648;23.406;2022-10-04T13:22:41;2.90;;;1.80;;
6348;SDS011;3207;42.648;23.406;2022-10-04T13:25:24;2.58;;;1.38;;
6348;SDS011;3207;42.648;23.406;2022-10-04T13:28:07;2.10;;;1.60;;
6348;SDS011;3207;42.648;23.406;2022-10-04T13:30:48;2.63;;;1.73;;
6348;SDS011;3207;42.648;23.406;2022-10-04T13:33:21;3.10;;;1.73;;
6348;SDS011;3207;42.648;23.406;2022-10-04T13:35:58;2.33;;;1.55;;
6348;SDS011;3207;42.648;23.406;2022-10-04T13:38:38;2.53;;;1.85;;
6348;SDS011;3207;42.648;23.406;2022-10-04T13:41:29;2.45;;;1.60;;
6348;SDS011;3207;42.648;23.406;2022-10-04T13:44:15;1.95;;;1.70;;
6348;SDS011;3207;42.648;23.406;2022-10-04T13:46:58;3.55;;;1.38;;
6348;SDS011;3207;42.648;23.406;2022-10-04T13:49:42;2.88;;;1.63;;
6348;SDS011;3207;42.648;23.406;2022-10-04T13:52:27;1.75;;;1.20;;
6348;SDS011;3207;42.648;23.406;2022-10-04T13:55:26;5.70;;;1.70;;
6348;SDS011;3207;42.648;23.406;2022-10-04T13:58:28;1.73;;;1.60;;
6348;SDS011;3207;42.648;23.406;2022-10-04T14:01:16;2.10;;;1.75;;
6348;SDS011;3207;42.648;23.406;2022-10-04T14:04:09;2.15;;;1.40;;
6348;SDS011;3207;42.648;23.406;2022-10-04T14:07:01;2.85;;;1.05;;
6348;SDS011;3207;42.648;23.406;2022-10-04T14:09:53;2.83;;;1.50;;
6348;SDS011;3207;42.648;23.406;2022-10-04T14:18:26;2.22;;;1.50;;
6348;SDS011;3207;42.648;23.406;2022-10-04T14:21:24;3.10;;;1.85;;
6348;SDS011;3207;42.648;23.406;2022-10-04T14:30:26;4.13;;;1.50;;
6348;SDS011;3207;42.648;23.406;2022-10-04T14:36:24;2.97;;;1.50;;
6348;SDS011;3207;42.648;23.406;2022-10-04T14:42:22;1.65;;;1.33;;
6348;SDS011;3207;42.648;23.406;2022-10-04T14:45:28;2.45;;;1.63;;
6348;SDS011;3207;42.648;23.406;2022-10-04T14:51:23;1.20;;;1.10;;
6348;SDS011;3207;42.648;23.406;2022-10-04T14:54:07;4.90;;;1.60;;
6348;SDS011;3207;42.648;23.406;2022-10-04T14:56:45;1.85;;;1.02;;
6348;SDS011;3207;42.648;23.406;2022-10-04T14:59:29;2.50;;;1.20;;
6348;SDS011;3207;42.648;23.406;2022-10-04T15:02:33;2.25;;;1.35;;
6348;SDS011;3207;42.648;23.406;2022-10-04T15:08:27;1.58;;;1.40;;
6348;SDS011;3207;42.648;23.406;2022-10-04T15:11:07;3.40;;;1.92;;
6348;SDS011;3207;42.648;23.406;2022-10-04T15:13:38;1.58;;;1.40;;
6348;SDS011;3207;42.648;23.406;2022-10-04T15:16:21;5.30;;;1.70;;
6348;SDS011;3207;42.648;23.406;2022-10-04T15:19:02;2.95;;;1.85;;
6348;SDS011;3207;42.648;23.406;2022-10-04T15:21:42;2.53;;;1.77;;
6348;SDS011;3207;42.648;23.406;2022-10-04T15:24:24;2.72;;;1.65;;
6348;SDS011;3207;42.648;23.406;2022-10-04T15:27:00;2.85;;;2.00;;
6348;SDS011;3207;42.648;23.406;2022-10-04T15:29:54;2.33;;;2.10;;
6348;SDS011;3207;42.648;23.406;2022-10-04T15:32:29;2.15;;;1.77;;
6348;SDS011;3207;42.648;23.406;2022-10-04T15:35:07;4.32;;;1.65;;
6348;SDS011;3207;42.648;23.406;2022-10-04T15:37:44;3.53;;;1.52;;
6348;SDS011;3207;42.648;23.406;2022-10-04T15:40:18;2.85;;;1.45;;
6348;SDS011;3207;42.648;23.406;2022-10-04T15:42:55;1.45;;;1.33;;
6348;SDS011;3207;42.648;23.406;2022-10-04T15:45:39;1.80;;;1.60;;
6348;SDS011;3207;42.648;23.406;2022-10-04T15:48:29;4.28;;;1.83;;
6348;SDS011;3207;42.648;23.406;2022-10-04T15:51:08;3.25;;;2.30;;
6348;SDS011;3207;42.648;23.406;2022-10-04T15:56:40;3.67;;;2.10;;
6348;SDS011;3207;42.648;23.406;2022-10-04T15:59:24;2.78;;;1.83;;
6348;SDS011;3207;42.648;23.406;2022-10-04T16:02:18;4.03;;;2.00;;
6348;SDS011;3207;42.648;23.406;2022-10-04T16:11:10;3.47;;;2.38;;
6348;SDS011;3207;42.648;23.406;2022-10-04T16:17:09;3.88;;;1.95;;
6348;SDS011;3207;42.648;23.406;2022-10-04T16:19:52;2.33;;;1.67;;
6348;SDS011;3207;42.648;23.406;2022-10-04T16:22:29;3.42;;;1.60;;
6348;SDS011;3207;42.648;23.406;2022-10-04T16:24:57;4.53;;;2.45;;
6348;SDS011;3207;42.648;23.406;2022-10-04T16:30:32;10.27;;;4.25;;
6348;SDS011;3207;42.648;23.406;2022-10-04T16:33:19;7.25;;;3.25;;
6348;SDS011;3207;42.648;23.406;2022-10-04T16:36:08;3.45;;;2.25;;
6348;SDS011;3207;42.648;23.406;2022-10-04T16:38:45;6.57;;;4.40;;
6348;SDS011;3207;42.648;23.406;2022-10-04T16:41:32;7.30;;;3.60;;
6348;SDS011;3207;42.648;23.406;2022-10-04T16:44:06;14.00;;;4.65;;
6348;SDS011;3207;42.648;23.406;2022-10-04T16:46:49;6.07;;;4.45;;
6348;SDS011;3207;42.648;23.406;2022-10-04T16:49:19;6.75;;;4.43;;
6348;SDS011;3207;42.648;23.406;2022-10-04T16:52:02;8.65;;;5.68;;
6348;SDS011;3207;42.648;23.406;2022-10-04T16:57:44;5.97;;;4.93;;
6348;SDS011;3207;42.648;23.406;2022-10-04T17:00:31;11.10;;;6.20;;
6348;SDS011;3207;42.648;23.406;2022-10-04T17:03:09;8.90;;;5.50;;
6348;SDS011;3207;42.648;23.406;2022-10-04T17:05:47;10.82;;;6.10;;
6348;SDS011;3207;42.648;23.406;2022-10-04T17:08:47;13.70;;;7.43;;
6348;SDS011;3207;42.648;23.406;2022-10-04T17:11:31;9.23;;;6.57;;
6348;SDS011;3207;42.648;23.406;2022-10-04T17:17:13;12.98;;;7.03;;
6348;SDS011;3207;42.648;23.406;2022-10-04T17:19:48;6.43;;;5.60;;
6348;SDS011;3207;42.648;23.406;2022-10-04T17:22:18;7.25;;;6.28;;
6348;SDS011;3207;42.648;23.406;2022-10-04T17:25:02;7.82;;;6.35;;
6348;SDS011;3207;42.648;23.406;2022-10-04T17:27:45;10.32;;;7.40;;
6348;SDS011;3207;42.648;23.406;2022-10-04T17:30:16;9.63;;;6.45;;
6348;SDS011;3207;42.648;23.406;2022-10-04T17:38:51;10.98;;;6.93;;
6348;SDS011;3207;42.648;23.406;2022-10-04T17:41:27;8.02;;;6.07;;
6348;SDS011;3207;42.648;23.406;2022-10-04T17:44:22;8.73;;;7.07;;
6348;SDS011;3207;42.648;23.406;2022-10-04T17:47:00;22.65;;;6.78;;
6348;SDS011;3207;42.648;23.406;2022-10-04T17:49:35;7.88;;;5.70;;
6348;SDS011;3207;42.648;23.406;2022-10-04T17:52:26;11.25;;;7.05;;
6348;SDS011;3207;42.648;23.406;2022-10-04T17:55:16;8.98;;;6.70;;
6348;SDS011;3207;42.648;23.406;2022-10-04T17:57:47;10.75;;;7.18;;
6348;SDS011;3207;42.648;23.406;2022-10-04T18:00:18;13.80;;;6.25;;
6348;SDS011;3207;42.648;23.406;2022-10-04T18:05:44;12.95;;;7.78;;
6348;SDS011;3207;42.648;23.406;2022-10-04T18:08:16;11.15;;;7.85;;
6348;SDS011;3207;42.648;23.406;2022-10-04T18:10:49;8.57;;;7.55;;
6348;SDS011;3207;42.648;23.406;2022-10-04T18:13:20;11.07;;;8.32;;
6348;SDS011;3207;42.648;23.406;2022-10-04T18:15:53;10.07;;;7.45;;
6348;SDS011;3207;42.648;23.406;2022-10-04T18:18:28;9.63;;;7.32;;
6348;SDS011;3207;42.648;23.406;2022-10-04T18:21:04;9.80;;;7.40;;
6348;SDS011;3207;42.648;23.406;2022-10-04T18:23:49;13.05;;;6.85;;
6348;SDS011;3207;42.648;23.406;2022-10-04T18:26:19;13.48;;;7.88;;
6348;SDS011;3207;42.648;23.406;2022-10-04T18:28:47;11.05;;;6.88;;
6348;SDS011;3207;42.648;23.406;2022-10-04T18:34:14;10.82;;;6.68;;